Time;durP1;ratioP1;P1;durP2;ratioP2;P2;SDS_P1;SDS_P2;PMS_P1;PMS_P2;Temp;Humidity;BMP_temperature;BMP_pressure;BME280_temperature;BME280_humidity;BME280_pressure;Samples;Min_cycle;Max_cycle;Signal;HPM_P1;HPM_P2
2022/04/22 00:00:41;;;;;;;7.25;3.80;;;;;;;;;;4925549;29;20095;-70
2022/04/22 00:03:08;;;;;;;10.07;3.30;;;;;;;;;;4924985;29;20043;-69
2022/04/22 00:05:34;;;;;;;7.70;3.30;;;;;;;;;;4926303;29;20556;-70
2022/04/22 00:08:01;;;;;;;8.13;3.50;;;;;;;;;;4925891;29;20044;-69
2022/04/22 00:10:27;;;;;;;6.40;3.45;;;;;;;;;;4924118;29;20052;-69
2022/04/22 00:12:54;;;;;;;10.40;3.58;;;;;;;;;;4923435;29;20434;-69
2022/04/22 00:15:20;;;;;;;7.20;4.43;;;;;;;;;;4934635;28;20059;-71
2022/04/22 00:17:47;;;;;;;5.82;3.65;;;;;;;;;;4923808;29;20040;-70
2022/04/22 00:20:13;;;;;;;7.05;3.40;;;;;;;;;;4923056;29;20056;-70
2022/04/22 00:22:40;;;;;;;7.32;3.28;;;;;;;;;;4924106;29;20055;-70
2022/04/22 00:25:11;;;;;;;6.25;3.20;;;;;;;;;;4925193;29;20132;-71
2022/04/22 00:27:38;;;;;;;10.05;4.13;;;;;;;;;;4923344;29;20234;-69
2022/04/22 00:30:10;;;;;;;7.20;3.33;;;;;;;;;;4923844;29;20040;-70
2022/04/22 00:32:36;;;;;;;6.05;3.40;;;;;;;;;;4920128;29;20047;-69
2022/04/22 00:35:03;;;;;;;6.32;3.17;;;;;;;;;;4925593;29;20048;-68
2022/04/22 00:37:29;;;;;;;7.43;3.30;;;;;;;;;;4925003;29;20090;-69
2022/04/22 00:39:56;;;;;;;9.80;3.53;;;;;;;;;;4916352;29;20040;-70
2022/04/22 00:42:22;;;;;;;5.57;3.10;;;;;;;;;;4920473;29;20048;-68
2022/04/22 00:44:48;;;;;;;5.72;3.33;;;;;;;;;;4925260;29;20583;-69
2022/04/22 00:47:14;;;;;;;10.63;3.20;;;;;;;;;;4926352;29;20048;-74
2022/04/22 00:49:40;;;;;;;6.00;3.03;;;;;;;;;;4926079;29;20182;-68
2022/04/22 00:52:07;;;;;;;4.40;2.55;;;;;;;;;;4924026;29;20047;-69
2022/04/22 00:54:34;;;;;;;7.05;2.70;;;;;;;;;;4926464;29;20048;-68
2022/04/22 00:57:00;;;;;;;5.72;2.47;;;;;;;;;;4926085;29;20059;-72
2022/04/22 00:59:27;;;;;;;6.95;2.40;;;;;;;;;;4927071;29;20048;-70
2022/04/22 01:01:52;;;;;;;5.32;2.15;;;;;;;;;;4925439;29;20079;-70
2022/04/22 01:09:47;;;;;;;2.72;2.08;;;;;;;;;;4928508;29;20066;-72
2022/04/22 01:12:14;;;;;;;2.78;2.05;;;;;;;;;;4926382;29;20143;-70
2022/04/22 01:14:41;;;;;;;5.68;2.10;;;;;;;;;;4924021;29;20059;-67
2022/04/22 01:17:08;;;;;;;4.85;2.00;;;;;;;;;;4922264;29;20051;-68
2022/04/22 01:19:34;;;;;;;1.88;1.65;;;;;;;;;;4923696;29;20055;-68
2022/04/22 01:22:01;;;;;;;3.88;2.00;;;;;;;;;;4914106;29;20055;-68
2022/04/22 01:24:28;;;;;;;3.47;1.90;;;;;;;;;;4923916;29;20051;-69
2022/04/22 01:26:55;;;;;;;3.67;1.90;;;;;;;;;;4926698;29;20054;-67
2022/04/22 01:29:21;;;;;;;3.08;1.90;;;;;;;;;;4923792;29;20056;-67
2022/04/22 01:31:48;;;;;;;5.70;1.70;;;;;;;;;;4923405;29;20079;-69
2022/04/22 01:34:14;;;;;;;3.97;1.77;;;;;;;;;;4923210;29;20083;-70
2022/04/22 01:36:40;;;;;;;3.47;1.90;;;;;;;;;;4922543;29;20047;-67
2022/04/22 01:39:06;;;;;;;7.88;1.92;;;;;;;;;;4926475;29;20055;-67
2022/04/22 01:41:32;;;;;;;2.20;1.50;;;;;;;;;;4925302;29;20721;-71
2022/04/22 01:43:58;;;;;;;2.92;1.92;;;;;;;;;;4922459;29;20127;-66
2022/04/22 01:46:24;;;;;;;2.92;1.52;;;;;;;;;;4921487;29;20082;-67
2022/04/22 01:48:50;;;;;;;3.10;1.60;;;;;;;;;;4926964;29;20051;-69
2022/04/22 01:51:16;;;;;;;2.55;1.60;;;;;;;;;;4925932;29;20048;-67
2022/04/22 01:53:42;;;;;;;3.53;1.67;;;;;;;;;;4928273;29;20422;-70
2022/04/22 01:56:08;;;;;;;3.47;1.70;;;;;;;;;;4928211;29;20067;-67
2022/04/22 01:58:34;;;;;;;2.33;1.33;;;;;;;;;;4928880;29;20694;-69
2022/04/22 02:01:00;;;;;;;3.83;1.50;;;;;;;;;;4928415;29;20047;-67
2022/04/22 02:03:26;;;;;;;2.40;1.60;;;;;;;;;;4929475;29;20147;-67
2022/04/22 02:05:52;;;;;;;8.98;2.05;;;;;;;;;;4926317;29;20043;-66
2022/04/22 02:08:19;;;;;;;4.20;1.58;;;;;;;;;;4931249;29;20521;-67
2022/04/22 02:10:46;;;;;;;4.30;1.48;;;;;;;;;;4926650;29;20706;-68
2022/04/22 02:13:12;;;;;;;4.25;1.60;;;;;;;;;;4926515;29;20081;-68
2022/04/22 02:15:38;;;;;;;3.20;1.60;;;;;;;;;;4926333;29;20131;-68
2022/04/22 02:18:04;;;;;;;3.95;1.80;;;;;;;;;;4928599;29;20070;-67
2022/04/22 02:20:31;;;;;;;4.85;1.90;;;;;;;;;;4924539;29;20090;-68
2022/04/22 02:22:57;;;;;;;6.15;2.03;;;;;;;;;;4929853;29;20557;-67
2022/04/22 02:25:23;;;;;;;6.03;1.60;;;;;;;;;;4925315;29;20043;-67
2022/04/22 02:30:34;;;;;;;4.68;1.52;;;;;;;;;;4924054;29;20500;-67
2022/04/22 02:33:00;;;;;;;6.93;1.50;;;;;;;;;;4928099;29;20047;-68
2022/04/22 02:35:25;;;;;;;2.75;1.67;;;;;;;;;;4924766;29;20502;-68
2022/04/22 02:37:54;;;;;;;1.92;1.50;;;;;;;;;;4927599;29;20438;-67
2022/04/22 02:45:51;;;;;;;4.63;1.55;;;;;;;;;;4927367;29;20131;-67
2022/04/22 02:48:18;;;;;;;4.45;1.50;;;;;;;;;;4928120;29;20069;-71
2022/04/22 02:50:43;;;;;;;3.30;1.10;;;;;;;;;;4926429;29;20043;-69
2022/04/22 02:53:09;;;;;;;3.03;1.42;;;;;;;;;;4926853;29;20102;-67
2022/04/22 02:55:38;;;;;;;1.75;1.15;;;;;;;;;;4926835;29;20063;-70
2022/04/22 02:58:05;;;;;;;3.72;1.40;;;;;;;;;;4930198;29;20106;-68
2022/04/22 03:00:31;;;;;;;4.57;1.20;;;;;;;;;;4926543;29;20148;-73
2022/04/22 03:02:57;;;;;;;6.80;1.75;;;;;;;;;;4928233;29;20055;-69
2022/04/22 03:05:23;;;;;;;2.35;1.30;;;;;;;;;;4926624;29;20059;-74
2022/04/22 03:07:49;;;;;;;3.25;1.50;;;;;;;;;;4928679;29;20134;-68
2022/04/22 03:10:15;;;;;;;4.63;1.55;;;;;;;;;;4924026;29;20585;-68
2022/04/22 03:12:42;;;;;;;2.97;1.30;;;;;;;;;;4927545;29;20065;-67
2022/04/22 03:15:08;;;;;;;2.38;1.40;;;;;;;;;;4926741;29;20549;-68
2022/04/22 03:17:34;;;;;;;2.63;1.25;;;;;;;;;;4925084;29;20051;-68
2022/04/22 03:20:00;;;;;;;4.25;1.33;;;;;;;;;;4927936;29;20047;-67
2022/04/22 03:22:26;;;;;;;2.22;1.30;;;;;;;;;;4923672;29;20122;-69
2022/04/22 03:24:52;;;;;;;4.40;1.55;;;;;;;;;;4925269;29;20055;-70
2022/04/22 03:27:18;;;;;;;2.92;1.40;;;;;;;;;;4927785;29;20056;-68
2022/04/22 03:29:44;;;;;;;2.80;1.25;;;;;;;;;;4926757;29;20062;-68
2022/04/22 03:32:13;;;;;;;2.53;1.30;;;;;;;;;;4925423;29;20075;-69
2022/04/22 03:34:39;;;;;;;3.80;1.60;;;;;;;;;;4927498;29;20060;-67
2022/04/22 03:37:05;;;;;;;4.47;1.38;;;;;;;;;;4925563;29;20058;-69
2022/04/22 03:39:32;;;;;;;2.92;1.30;;;;;;;;;;4933218;29;20146;-67
2022/04/22 03:41:58;;;;;;;4.78;1.42;;;;;;;;;;4925333;29;20050;-70
2022/04/22 03:44:25;;;;;;;2.50;1.60;;;;;;;;;;4925532;29;20052;-68
2022/04/22 03:46:52;;;;;;;1.90;1.17;;;;;;;;;;4928993;29;20052;-69
2022/04/22 03:49:18;;;;;;;3.97;1.27;;;;;;;;;;4930285;29;20051;-68
2022/04/22 03:51:43;;;;;;;4.88;1.65;;;;;;;;;;4922530;29;20060;-67
2022/04/22 03:54:10;;;;;;;3.65;1.40;;;;;;;;;;4927350;29;20062;-69
2022/04/22 03:59:20;;;;;;;4.63;1.40;;;;;;;;;;4926952;29;20040;-69
2022/04/22 04:01:46;;;;;;;4.57;1.40;;;;;;;;;;4926268;29;20056;-67
2022/04/22 04:04:11;;;;;;;3.60;1.77;;;;;;;;;;4930202;29;20104;-68
2022/04/22 04:06:37;;;;;;;3.03;1.35;;;;;;;;;;4925728;29;20753;-66
2022/04/22 04:17:17;;;;;;;;;;;;;;;;;;4925148;29;20107;-68
2022/04/22 04:25:11;;;;;;;3.17;1.40;;;;;;;;;;4906466;29;19927;-69
2022/04/22 04:27:38;;;;;;;3.55;1.40;;;;;;;;;;4919630;29;20075;-68
2022/04/22 04:30:05;;;;;;;3.92;1.60;;;;;;;;;;4905826;29;20052;-67
2022/04/22 04:32:31;;;;;;;8.75;1.60;;;;;;;;;;4907672;29;20387;-68
2022/04/22 04:34:57;;;;;;;2.92;1.52;;;;;;;;;;4907435;29;20139;-68
2022/04/22 04:37:23;;;;;;;2.92;1.40;;;;;;;;;;4906291;29;20565;-66
2022/04/22 04:39:49;;;;;;;9.18;1.80;;;;;;;;;;4909180;29;20509;-68
2022/04/22 04:42:15;;;;;;;4.72;1.73;;;;;;;;;;4903908;29;20075;-68
2022/04/22 04:44:41;;;;;;;3.42;1.50;;;;;;;;;;4907175;29;20138;-67
2022/04/22 04:47:07;;;;;;;4.22;1.50;;;;;;;;;;4907084;29;20690;-68
2022/04/22 04:49:33;;;;;;;5.80;1.75;;;;;;;;;;4904630;29;20044;-70
2022/04/22 04:51:59;;;;;;;7.65;1.50;;;;;;;;;;4900141;29;20044;-68
2022/04/22 04:54:24;;;;;;;5.82;1.48;;;;;;;;;;4901738;29;20066;-69
2022/04/22 04:56:50;;;;;;;4.70;1.50;;;;;;;;;;4904771;29;20056;-70
2022/04/22 04:59:16;;;;;;;7.22;1.85;;;;;;;;;;4906839;29;20052;-69
2022/04/22 05:01:42;;;;;;;4.00;1.80;;;;;;;;;;4904754;29;20063;-67
2022/04/22 05:04:08;;;;;;;5.05;1.60;;;;;;;;;;4909400;29;20866;-68
2022/04/22 05:06:35;;;;;;;4.57;1.75;;;;;;;;;;4907202;29;20056;-69
2022/04/22 05:09:00;;;;;;;4.85;1.70;;;;;;;;;;4906004;29;20104;-67
2022/04/22 05:11:26;;;;;;;7.28;2.13;;;;;;;;;;4906178;29;20829;-69
2022/04/22 05:13:52;;;;;;;4.05;1.65;;;;;;;;;;4908867;29;20048;-70
2022/04/22 05:16:18;;;;;;;4.70;1.75;;;;;;;;;;4905687;29;20063;-69
2022/04/22 05:18:44;;;;;;;5.07;1.77;;;;;;;;;;4906596;29;20060;-71
2022/04/22 05:21:10;;;;;;;4.97;1.42;;;;;;;;;;4903274;29;20047;-69
2022/04/22 05:23:36;;;;;;;4.75;1.50;;;;;;;;;;4910511;29;20527;-68
2022/04/22 05:26:02;;;;;;;7.70;1.67;;;;;;;;;;4924683;29;20079;-68
2022/04/22 05:28:28;;;;;;;2.35;1.48;;;;;;;;;;4927435;29;20506;-69
2022/04/22 05:33:40;;;;;;;8.07;2.00;;;;;;;;;;4923915;29;20337;-68
2022/04/22 05:36:06;;;;;;;7.72;1.80;;;;;;;;;;4923504;29;20059;-69
2022/04/22 05:38:34;;;;;;;6.03;1.73;;;;;;;;;;4922463;29;20063;-68
2022/04/22 05:41:00;;;;;;;4.07;1.52;;;;;;;;;;4920692;29;20083;-67
2022/04/22 05:43:26;;;;;;;7.10;2.25;;;;;;;;;;4924134;29;20043;-67
2022/04/22 05:45:52;;;;;;;4.07;2.00;;;;;;;;;;4906713;29;20463;-68
2022/04/22 05:48:18;;;;;;;12.35;1.85;;;;;;;;;;4920731;29;20422;-69
2022/04/22 05:50:44;;;;;;;9.25;1.90;;;;;;;;;;4922434;29;20058;-67
2022/04/22 05:53:09;;;;;;;9.32;2.50;;;;;;;;;;4924555;29;20055;-69
2022/04/22 05:55:36;;;;;;;9.18;2.00;;;;;;;;;;4921998;29;20528;-68
2022/04/22 05:58:02;;;;;;;8.07;2.47;;;;;;;;;;4923878;29;20180;-67
2022/04/22 06:00:33;;;;;;;6.93;2.70;;;;;;;;;;4921504;29;20064;-67
2022/04/22 06:02:59;;;;;;;8.32;3.22;;;;;;;;;;4921978;29;20118;-69
2022/04/22 06:05:26;;;;;;;10.13;2.88;;;;;;;;;;4920128;29;20505;-71
2022/04/22 06:10:38;;;;;;;6.32;2.00;;;;;;;;;;4919597;29;20043;-68
2022/04/22 06:13:05;;;;;;;10.25;2.05;;;;;;;;;;4920832;29;20074;-66
2022/04/22 06:15:32;;;;;;;14.32;2.28;;;;;;;;;;4919803;29;20071;-62
2022/04/22 06:17:59;;;;;;;9.23;2.20;;;;;;;;;;4922656;29;20059;-69
2022/04/22 06:20:25;;;;;;;9.55;1.90;;;;;;;;;;4925454;29;20048;-67
2022/04/22 06:22:52;;;;;;;4.50;1.80;;;;;;;;;;4926656;29;20036;-67
2022/04/22 06:25:18;;;;;;;9.88;2.10;;;;;;;;;;4924544;29;20059;-70
2022/04/22 06:27:45;;;;;;;6.05;2.10;;;;;;;;;;4922509;29;20106;-67
2022/04/22 06:30:16;;;;;;;3.67;1.70;;;;;;;;;;4922626;29;20074;-67
2022/04/22 06:32:45;;;;;;;6.03;1.80;;;;;;;;;;4929860;29;20486;-69
2022/04/22 06:35:13;;;;;;;6.30;1.80;;;;;;;;;;4937933;29;20043;-66
2022/04/22 06:37:41;;;;;;;4.82;1.70;;;;;;;;;;4927080;29;20059;-67
2022/04/22 06:45:46;;;;;;;9.30;1.55;;;;;;;;;;4925515;29;20047;-67
2022/04/22 06:48:25;;;;;;;8.05;1.92;;;;;;;;;;4937552;29;20054;-67
2022/04/22 06:50:51;;;;;;;4.75;1.88;;;;;;;;;;4924138;29;20048;-76
2022/04/22 06:53:19;;;;;;;7.28;2.22;;;;;;;;;;4929208;29;20542;-68
2022/04/22 06:55:47;;;;;;;7.93;1.80;;;;;;;;;;4941443;28;20056;-68
2022/04/22 06:58:15;;;;;;;7.68;1.98;;;;;;;;;;4919475;29;20128;-69
2022/04/22 07:00:43;;;;;;;6.78;2.13;;;;;;;;;;4923826;29;20573;-69
2022/04/22 07:03:10;;;;;;;7.65;2.20;;;;;;;;;;4925094;29;20066;-69
2022/04/22 07:05:38;;;;;;;9.55;2.10;;;;;;;;;;4921071;29;21326;-71
2022/04/22 07:08:08;;;;;;;10.77;2.33;;;;;;;;;;4924099;29;20075;-69
2022/04/22 07:10:35;;;;;;;7.43;2.08;;;;;;;;;;4925801;29;20171;-71
2022/04/22 07:13:01;;;;;;;6.03;2.03;;;;;;;;;;4925900;29;20044;-68
2022/04/22 07:15:28;;;;;;;6.03;2.45;;;;;;;;;;4924415;29;20059;-71
2022/04/22 07:17:55;;;;;;;12.45;2.58;;;;;;;;;;4925924;29;20059;-75
2022/04/22 07:20:21;;;;;;;5.03;2.20;;;;;;;;;;4923185;29;20044;-69
2022/04/22 07:22:48;;;;;;;7.95;2.83;;;;;;;;;;4926149;29;20145;-69
2022/04/22 07:25:16;;;;;;;7.32;2.80;;;;;;;;;;4921234;29;20453;-69
2022/04/22 07:27:46;;;;;;;5.40;2.30;;;;;;;;;;4938774;28;20139;-68
2022/04/22 07:30:15;;;;;;;6.63;2.47;;;;;;;;;;4921917;29;20051;-71
2022/04/22 07:32:45;;;;;;;5.28;1.90;;;;;;;;;;4924863;29;20550;-70
2022/04/22 07:35:14;;;;;;;5.10;2.17;;;;;;;;;;4923603;29;20825;-67
2022/04/22 07:37:41;;;;;;;5.47;2.17;;;;;;;;;;4924257;29;20517;-69
2022/04/22 07:40:08;;;;;;;6.25;2.28;;;;;;;;;;4938422;28;20052;-70
2022/04/22 07:42:35;;;;;;;4.60;1.98;;;;;;;;;;4922713;29;20083;-75
2022/04/22 07:47:48;;;;;;;8.80;2.15;;;;;;;;;;4925528;29;20055;-71
2022/04/22 07:50:15;;;;;;;8.25;2.10;;;;;;;;;;4922591;29;20166;-70
2022/04/22 07:52:44;;;;;;;8.30;1.98;;;;;;;;;;4925633;29;20411;-69
2022/04/22 07:55:12;;;;;;;5.88;2.20;;;;;;;;;;4926961;29;20079;-68
2022/04/22 07:57:42;;;;;;;7.20;1.95;;;;;;;;;;4926972;29;20125;-73
2022/04/22 08:00:10;;;;;;;6.05;1.80;;;;;;;;;;4929067;29;20563;-73
2022/04/22 08:02:40;;;;;;;7.63;1.83;;;;;;;;;;4942249;29;20060;-76
2022/04/22 08:05:11;;;;;;;4.60;1.77;;;;;;;;;;4926163;29;20064;-69
2022/04/22 08:07:38;;;;;;;3.58;1.75;;;;;;;;;;4924515;29;20047;-77
2022/04/22 08:10:05;;;;;;;8.35;2.10;;;;;;;;;;4921828;29;20070;-79
2022/04/22 08:12:31;;;;;;;3.58;1.70;;;;;;;;;;4925550;29;20059;-71
2022/04/22 08:14:58;;;;;;;7.38;2.15;;;;;;;;;;4924209;29;20059;-73
2022/04/22 08:17:24;;;;;;;6.72;1.98;;;;;;;;;;4922450;29;20435;-74
2022/04/22 08:19:50;;;;;;;7.25;2.00;;;;;;;;;;4923341;29;20066;-71
2022/04/22 08:22:17;;;;;;;3.85;1.48;;;;;;;;;;4919728;29;20047;-65
2022/04/22 08:24:44;;;;;;;5.20;1.88;;;;;;;;;;4924280;29;20051;-67
2022/04/22 08:27:11;;;;;;;5.65;1.70;;;;;;;;;;4926471;29;20442;-65
2022/04/22 08:29:39;;;;;;;3.63;1.60;;;;;;;;;;4937304;28;20059;-66
2022/04/22 08:32:05;;;;;;;9.73;2.10;;;;;;;;;;4919869;29;20054;-70
2022/04/22 08:34:31;;;;;;;4.47;1.80;;;;;;;;;;4921954;29;20051;-66
2022/04/22 08:36:57;;;;;;;6.60;1.95;;;;;;;;;;4920863;29;20202;-68
2022/04/22 08:39:23;;;;;;;4.07;1.70;;;;;;;;;;4923432;29;20134;-67
2022/04/22 08:41:50;;;;;;;7.80;1.70;;;;;;;;;;4915793;29;20051;-68
2022/04/22 08:44:17;;;;;;;5.60;1.75;;;;;;;;;;4923297;29;20501;-68
2022/04/22 08:52:15;;;;;;;5.15;1.80;;;;;;;;;;4922681;29;20066;-66
2022/04/22 08:54:43;;;;;;;6.38;1.85;;;;;;;;;;4926265;29;20058;-69
2022/04/22 08:57:09;;;;;;;4.75;1.90;;;;;;;;;;4926021;29;20052;-68
2022/04/22 08:59:35;;;;;;;7.68;1.83;;;;;;;;;;4926951;29;20043;-72
2022/04/22 09:02:03;;;;;;;6.00;1.90;;;;;;;;;;4922298;29;20135;-68
2022/04/22 09:04:29;;;;;;;6.30;2.13;;;;;;;;;;4921682;29;20040;-65
2022/04/22 09:06:56;;;;;;;10.25;2.08;;;;;;;;;;4922688;29;20519;-67
2022/04/22 09:09:23;;;;;;;11.23;2.38;;;;;;;;;;4923300;29;20059;-70
2022/04/22 09:11:51;;;;;;;4.47;1.52;;;;;;;;;;4918861;29;20521;-68
2022/04/22 09:14:19;;;;;;;5.72;2.08;;;;;;;;;;4923188;29;20048;-67
2022/04/22 09:16:45;;;;;;;6.40;2.22;;;;;;;;;;4925466;29;20098;-71
2022/04/22 09:19:12;;;;;;;5.35;2.05;;;;;;;;;;4918547;29;20047;-71
2022/04/22 09:21:39;;;;;;;6.18;1.88;;;;;;;;;;4916767;29;20063;-69
2022/04/22 09:24:15;;;;;;;4.80;1.42;;;;;;;;;;4918670;29;20498;-72
2022/04/22 09:26:41;;;;;;;4.22;1.50;;;;;;;;;;4920105;29;20052;-71
2022/04/22 09:29:10;;;;;;;6.57;2.08;;;;;;;;;;4921863;29;20138;-72
2022/04/22 09:31:46;;;;;;;4.05;1.58;;;;;;;;;;4919770;29;20062;-74
2022/04/22 09:34:13;;;;;;;5.40;1.90;;;;;;;;;;4918591;29;20506;-68
2022/04/22 09:45:05;;;;;;;4.55;1.77;;;;;;;;;;4916674;29;20055;-74
2022/04/22 09:47:33;;;;;;;5.43;1.52;;;;;;;;;;4923430;29;20055;-74
2022/04/22 09:50:00;;;;;;;7.32;1.98;;;;;;;;;;4921647;29;20063;-76
2022/04/22 09:52:28;;;;;;;6.63;2.05;;;;;;;;;;4920625;29;20130;-75
2022/04/22 09:55:06;;;;;;;6.45;1.98;;;;;;;;;;4919760;29;20051;-78
2022/04/22 09:57:50;;;;;;;5.72;1.70;;;;;;;;;;4919720;29;20532;-75
2022/04/22 10:00:16;;;;;;;4.43;1.95;;;;;;;;;;4916681;29;20059;-78
2022/04/22 10:02:43;;;;;;;4.18;1.48;;;;;;;;;;4920889;29;20059;-77
2022/04/22 10:05:12;;;;;;;7.72;1.80;;;;;;;;;;4921398;29;20052;-75
2022/04/22 10:07:42;;;;;;;6.80;1.58;;;;;;;;;;4919668;29;20133;-74
2022/04/22 10:10:10;;;;;;;7.13;1.40;;;;;;;;;;4918832;29;20058;-77
2022/04/22 10:12:37;;;;;;;5.18;1.88;;;;;;;;;;4923623;29;20673;-71
2022/04/22 10:15:07;;;;;;;6.90;2.00;;;;;;;;;;4923668;29;20063;-72
2022/04/22 10:17:37;;;;;;;4.38;1.70;;;;;;;;;;4927442;29;20103;-77
2022/04/22 10:20:06;;;;;;;5.00;2.15;;;;;;;;;;4928766;29;20051;-78
2022/04/22 10:22:33;;;;;;;10.25;1.90;;;;;;;;;;4931255;29;20516;-76
2022/04/22 10:25:03;;;;;;;7.28;2.05;;;;;;;;;;4929646;29;20083;-76
2022/04/22 10:27:33;;;;;;;4.30;2.00;;;;;;;;;;4923214;29;20430;-73
2022/04/22 10:30:00;;;;;;;8.25;1.65;;;;;;;;;;4925059;29;20350;-75
2022/04/22 10:32:27;;;;;;;7.65;1.60;;;;;;;;;;4923619;29;20048;-72
2022/04/22 10:34:58;;;;;;;6.10;1.90;;;;;;;;;;4922701;29;20060;-78
2022/04/22 10:37:31;;;;;;;6.78;2.10;;;;;;;;;;4922845;29;20066;-73
2022/04/22 10:39:58;;;;;;;6.03;2.30;;;;;;;;;;4940292;28;20043;-72
2022/04/22 10:42:38;;;;;;;4.38;1.95;;;;;;;;;;4928946;29;20051;-73
2022/04/22 10:47:55;;;;;;;5.80;2.00;;;;;;;;;;4932302;29;20098;-74
2022/04/22 10:50:34;;;;;;;6.25;1.73;;;;;;;;;;4922411;29;20098;-72
2022/04/22 10:53:09;;;;;;;5.95;1.60;;;;;;;;;;4926998;29;20157;-72
2022/04/22 10:55:41;;;;;;;4.55;1.80;;;;;;;;;;4926141;29;20108;-74
2022/04/22 10:58:13;;;;;;;5.45;1.60;;;;;;;;;;4929332;29;20043;-76
2022/04/22 11:00:42;;;;;;;4.93;1.60;;;;;;;;;;4926057;29;20060;-73
2022/04/22 11:03:16;;;;;;;4.50;1.48;;;;;;;;;;4932018;29;20048;-72
2022/04/22 11:05:43;;;;;;;;;;;;;;;;;;4926289;29;20144;-74
2022/04/22 11:08:18;;;;;;;7.63;1.88;;;;;;;;;;4926018;29;20365;-75
2022/04/22 11:10:47;;;;;;;2.70;1.40;;;;;;;;;;4922299;29;20147;-77
2022/04/22 11:13:41;;;;;;;8.88;1.65;;;;;;;;;;4925869;29;20039;-73
2022/04/22 11:16:12;;;;;;;2.83;1.40;;;;;;;;;;4917181;29;20373;-75
2022/04/22 11:18:39;;;;;;;5.32;1.65;;;;;;;;;;4916049;29;20050;-71
2022/04/22 11:21:12;;;;;;;5.20;1.10;;;;;;;;;;4924757;29;20064;-73
2022/04/22 11:23:44;;;;;;;3.00;1.33;;;;;;;;;;4919512;29;20572;-71
2022/04/22 11:26:18;;;;;;;6.45;1.65;;;;;;;;;;4925728;29;20380;-68
2022/04/22 11:28:45;;;;;;;3.13;1.23;;;;;;;;;;4927305;29;20123;-68
2022/04/22 11:31:13;;;;;;;8.95;2.60;;;;;;;;;;4923241;29;20768;-72
2022/04/22 11:33:48;;;;;;;8.38;2.72;;;;;;;;;;4925608;29;20482;-72
2022/04/22 11:36:14;;;;;;;7.10;3.17;;;;;;;;;;4925759;29;20056;-73
2022/04/22 11:38:51;;;;;;;13.05;4.10;;;;;;;;;;4923245;29;20054;-70
2022/04/22 11:41:17;;;;;;;6.72;3.25;;;;;;;;;;4925296;29;20047;-70
2022/04/22 11:43:44;;;;;;;11.82;3.88;;;;;;;;;;4927465;29;20042;-72
2022/04/22 11:46:12;;;;;;;11.93;3.50;;;;;;;;;;4926044;29;20110;-72
2022/04/22 11:48:48;;;;;;;10.30;3.15;;;;;;;;;;4925042;29;20062;-75
2022/04/22 11:51:16;;;;;;;15.30;5.07;;;;;;;;;;4920193;29;20057;-73
2022/04/22 11:53:52;;;;;;;14.80;5.65;;;;;;;;;;4925113;29;20048;-68
2022/04/22 11:56:20;;;;;;;7.75;3.03;;;;;;;;;;4930155;29;20065;-68
2022/04/22 11:58:52;;;;;;;14.25;4.60;;;;;;;;;;4926430;29;20406;-70
2022/04/22 12:06:55;;;;;;;11.13;3.15;;;;;;;;;;4929058;29;20440;-71
2022/04/22 12:09:21;;;;;;;11.23;3.30;;;;;;;;;;4926793;28;20043;-76
2022/04/22 12:11:50;;;;;;;9.35;3.10;;;;;;;;;;4926031;29;20044;-73
2022/04/22 12:14:26;;;;;;;8.43;3.53;;;;;;;;;;4924021;29;20126;-72
2022/04/22 12:16:59;;;;;;;13.80;5.07;;;;;;;;;;4926857;29;20129;-75
2022/04/22 12:19:26;;;;;;;11.50;3.60;;;;;;;;;;4925194;29;20470;-73
2022/04/22 12:21:53;;;;;;;11.18;3.67;;;;;;;;;;4930520;29;20088;-71
2022/04/22 12:24:20;;;;;;;8.93;3.70;;;;;;;;;;4931856;29;20091;-77
2022/04/22 12:26:47;;;;;;;7.32;3.78;;;;;;;;;;4935928;29;20074;-76
2022/04/22 12:29:13;;;;;;;7.93;3.42;;;;;;;;;;4935276;29;20043;-75
2022/04/22 12:31:41;;;;;;;11.52;3.63;;;;;;;;;;4932909;29;20439;-71
2022/04/22 12:34:09;;;;;;;10.98;3.60;;;;;;;;;;4927858;29;20052;-75
2022/04/22 12:36:53;;;;;;;9.75;2.92;;;;;;;;;;4925274;29;20091;-76
2022/04/22 12:39:39;;;;;;;8.57;4.03;;;;;;;;;;4945222;28;20508;-73
2022/04/22 12:42:07;;;;;;;9.00;3.17;;;;;;;;;;4927264;29;20051;-76
2022/04/22 12:44:34;;;;;;;7.35;3.55;;;;;;;;;;4923357;29;20065;-73
2022/04/22 12:52:45;;;;;;;8.50;3.10;;;;;;;;;;4938842;29;20047;-77
2022/04/22 12:55:15;;;;;;;5.88;2.85;;;;;;;;;;4942129;29;20062;-77
2022/04/22 12:57:41;;;;;;;11.00;2.92;;;;;;;;;;4939121;28;20043;-76
2022/04/22 13:00:20;;;;;;;4.93;2.28;;;;;;;;;;4937829;29;20050;-74
2022/04/22 13:02:46;;;;;;;8.75;2.38;;;;;;;;;;4934177;29;20054;-76
2022/04/22 13:05:18;;;;;;;7.50;2.72;;;;;;;;;;4927672;29;20599;-76
2022/04/22 13:07:50;;;;;;;4.80;2.33;;;;;;;;;;4917581;29;20577;-76
2022/04/22 13:10:20;;;;;;;5.00;1.90;;;;;;;;;;4942722;29;20054;-79
2022/04/22 13:12:46;;;;;;;4.30;2.00;;;;;;;;;;4953144;28;20071;-74
2022/04/22 13:15:18;;;;;;;4.63;2.15;;;;;;;;;;4937118;28;20522;-79
2022/04/22 13:17:45;;;;;;;3.85;1.98;;;;;;;;;;4935709;29;20058;-77
2022/04/22 13:20:15;;;;;;;4.88;1.80;;;;;;;;;;4933001;29;20052;-76
2022/04/22 13:22:41;;;;;;;5.47;2.03;;;;;;;;;;4927886;29;20190;-77
2022/04/22 13:25:11;;;;;;;3.08;1.75;;;;;;;;;;4944491;28;20083;-77
2022/04/22 13:27:39;;;;;;;3.80;1.58;;;;;;;;;;4920348;29;20458;-78
2022/04/22 13:30:06;;;;;;;4.07;1.50;;;;;;;;;;4937336;29;20505;-77
2022/04/22 13:32:33;;;;;;;9.30;2.03;;;;;;;;;;4935783;29;20577;-75
2022/04/22 13:34:59;;;;;;;5.70;1.70;;;;;;;;;;4933781;29;20051;-78
2022/04/22 13:37:25;;;;;;;10.27;2.20;;;;;;;;;;4933245;29;20488;-75
2022/04/22 13:39:51;;;;;;;6.90;2.00;;;;;;;;;;4931259;29;20130;-77
2022/04/22 13:42:18;;;;;;;5.72;2.20;;;;;;;;;;4932808;29;20449;-74
2022/04/22 13:52:58;;;;;;;7.32;2.20;;;;;;;;;;4930084;29;20365;-75
2022/04/22 13:55:24;;;;;;;3.22;1.70;;;;;;;;;;4940036;29;20077;-74
2022/04/22 13:57:49;;;;;;;5.00;1.92;;;;;;;;;;4925825;29;20056;-75
2022/04/22 14:00:16;;;;;;;4.22;1.73;;;;;;;;;;4938821;29;20062;-75
2022/04/22 14:02:42;;;;;;;5.30;1.95;;;;;;;;;;4937340;29;20044;-75
2022/04/22 14:05:07;;;;;;;8.10;2.42;;;;;;;;;;4938597;29;20690;-77
2022/04/22 14:07:34;;;;;;;3.40;1.70;;;;;;;;;;4937379;29;20056;-76
2022/04/22 14:09:59;;;;;;;6.55;2.03;;;;;;;;;;4938914;29;20105;-78
2022/04/22 14:12:25;;;;;;;8.80;2.25;;;;;;;;;;4942621;29;20051;-79
2022/04/22 14:14:52;;;;;;;6.43;1.80;;;;;;;;;;4920352;28;20207;-78
2022/04/22 14:17:19;;;;;;;4.10;2.45;;;;;;;;;;4934268;29;20059;-78
2022/04/22 14:19:48;;;;;;;6.85;2.13;;;;;;;;;;4941255;29;20071;-76
2022/04/22 14:22:15;;;;;;;4.72;1.70;;;;;;;;;;4926547;29;20051;-76
2022/04/22 14:24:41;;;;;;;4.85;1.65;;;;;;;;;;4937817;29;20054;-76
2022/04/22 14:27:08;;;;;;;10.10;3.20;;;;;;;;;;4939610;29;20058;-76
2022/04/22 14:29:34;;;;;;;9.65;1.90;;;;;;;;;;4942343;29;20075;-73
2022/04/22 14:32:01;;;;;;;6.60;2.50;;;;;;;;;;4942185;29;20047;-74
2022/04/22 14:34:28;;;;;;;7.00;2.10;;;;;;;;;;4958517;28;20112;-76
2022/04/22 14:36:53;;;;;;;4.80;2.10;;;;;;;;;;4940384;28;20086;-76
2022/04/22 14:39:20;;;;;;;5.15;2.03;;;;;;;;;;4973779;28;20461;-75
2022/04/22 14:41:46;;;;;;;4.75;1.83;;;;;;;;;;4938489;28;20094;-76
2022/04/22 14:44:15;;;;;;;4.72;1.77;;;;;;;;;;4935522;29;20054;-77
2022/04/22 14:46:42;;;;;;;8.90;2.00;;;;;;;;;;4935119;29;20059;-77
2022/04/22 14:49:11;;;;;;;10.20;2.55;;;;;;;;;;4951782;29;20523;-77
2022/04/22 14:51:37;;;;;;;4.45;2.17;;;;;;;;;;4924298;28;20066;-76
2022/04/22 14:54:03;;;;;;;6.05;2.30;;;;;;;;;;4930603;29;20043;-77
2022/04/22 14:56:29;;;;;;;7.18;2.25;;;;;;;;;;4933763;29;20054;-76
2022/04/22 14:58:55;;;;;;;5.93;2.08;;;;;;;;;;4932059;29;20048;-75
2022/04/22 15:01:21;;;;;;;10.80;2.30;;;;;;;;;;4933153;29;20058;-74
2022/04/22 15:03:47;;;;;;;10.40;3.15;;;;;;;;;;4929031;29;20103;-78
2022/04/22 15:06:13;;;;;;;8.13;2.45;;;;;;;;;;4930442;29;20139;-75
2022/04/22 15:08:39;;;;;;;5.53;2.47;;;;;;;;;;4939285;29;20070;-79
2022/04/22 15:11:05;;;;;;;6.05;2.25;;;;;;;;;;4936203;28;20095;-76
2022/04/22 15:13:33;;;;;;;6.13;1.90;;;;;;;;;;4929086;29;20054;-77
2022/04/22 15:16:00;;;;;;;10.75;2.30;;;;;;;;;;4933377;29;20050;-76
2022/04/22 15:24:17;;;;;;;11.10;2.10;;;;;;;;;;4931008;29;20139;-75
2022/04/22 15:26:44;;;;;;;9.65;2.30;;;;;;;;;;4935782;29;20056;-77
2022/04/22 15:29:13;;;;;;;7.47;2.60;;;;;;;;;;4936523;29;20398;-76
2022/04/22 15:31:40;;;;;;;8.80;2.38;;;;;;;;;;4933766;28;20044;-75
2022/04/22 15:34:06;;;;;;;8.57;2.78;;;;;;;;;;4937626;29;20047;-75
2022/04/22 15:36:32;;;;;;;8.32;2.40;;;;;;;;;;4939736;29;20506;-77
2022/04/22 15:39:01;;;;;;;11.70;3.00;;;;;;;;;;4938339;29;20077;-76
2022/04/22 15:41:32;;;;;;;13.93;2.78;;;;;;;;;;4937458;29;20055;-78
2022/04/22 15:44:00;;;;;;;22.63;3.45;;;;;;;;;;4936502;29;20510;-77
2022/04/22 15:46:26;;;;;;;11.57;2.53;;;;;;;;;;4933541;29;20051;-76
2022/04/22 15:48:54;;;;;;;12.35;2.70;;;;;;;;;;4927460;29;20051;-76
2022/04/22 15:51:21;;;;;;;13.30;2.83;;;;;;;;;;4927764;29;20123;-77
2022/04/22 15:53:48;;;;;;;10.30;2.80;;;;;;;;;;4932468;29;20044;-77
2022/04/22 15:56:15;;;;;;;10.25;2.47;;;;;;;;;;4932379;29;20501;-76
2022/04/22 15:58:45;;;;;;;9.95;2.50;;;;;;;;;;4936226;29;20533;-76
2022/04/22 16:01:15;;;;;;;16.50;2.78;;;;;;;;;;4934836;29;20046;-77
2022/04/22 16:03:48;;;;;;;13.73;3.25;;;;;;;;;;4934515;29;20052;-75
2022/04/22 16:06:18;;;;;;;12.02;2.92;;;;;;;;;;4930122;29;20051;-75
2022/04/22 16:08:45;;;;;;;15.00;2.97;;;;;;;;;;4937968;29;20515;-75